Terminal Aerodrome Forecast
Issued by NWS

Home | Current Version | Previous Version | Text Only | Print | Product List | Glossary On
Versions: 1 2 3 4 5 6 7 8 9 10 11 12 13 14 15 16 17 18 19 20 21 22 23 24 25
000
FTUS44 KOHX 260700 AAB
TAFCKV
TAF AMD
KCKV 260736Z 2608/2706 33007KT P6SM BKN005 OVC012
      TEMPO 2609/2613 5SM BR
     FM261700 01007KT P6SM OVC015
     FM262000 36008KT P6SM OVC035
     FM270300 36006KT P6SM SKC=

USA.gov is the U.S. government's official web portal to all federal, state and local government web resources and services.